createdAt,value
2017-11-13T00:00:00.650Z,4.70
2017-11-13T00:02:28.094Z,4.70
2017-11-13T00:04:55.523Z,4.60
2017-11-13T00:07:23.750Z,4.60
2017-11-13T00:09:51.212Z,4.50
2017-11-13T00:12:18.976Z,4.60
2017-11-13T00:14:46.431Z,4.60
2017-11-13T00:17:13.861Z,4.70
2017-11-13T00:19:41.309Z,4.70
2017-11-13T00:22:09.512Z,4.80
2017-11-13T00:24:36.964Z,4.70
2017-11-13T00:27:04.409Z,4.80
2017-11-13T00:29:31.889Z,4.80
2017-11-13T00:31:59.298Z,4.90
2017-11-13T00:34:27.829Z,5.00
2017-11-13T00:36:55.302Z,4.90
2017-11-13T00:39:22.763Z,5.00
2017-11-13T00:41:50.197Z,5.00
2017-11-13T00:44:17.650Z,5.00
2017-11-13T00:46:45.081Z,5.00
2017-11-13T00:49:12.510Z,5.00
2017-11-13T00:51:40.200Z,5.00
2017-11-13T00:54:08.406Z,5.10
2017-11-13T00:56:35.822Z,5.10
2017-11-13T00:59:04.029Z,5.20
2017-11-13T01:01:31.503Z,5.20
2017-11-13T01:03:58.956Z,5.30
2017-11-13T01:06:26.389Z,5.30
2017-11-13T01:08:54.178Z,5.40
2017-11-13T01:11:21.605Z,5.40
2017-11-13T01:13:49.034Z,5.40
2017-11-13T01:16:16.474Z,5.50
2017-11-13T01:18:44.017Z,5.50
2017-11-13T01:21:11.582Z,5.50
2017-11-13T01:23:39.023Z,5.50
2017-11-13T01:26:06.801Z,5.60
2017-11-13T01:28:34.229Z,5.60
2017-11-13T01:31:01.731Z,5.60
2017-11-13T01:33:29.275Z,5.60
2017-11-13T01:35:56.706Z,5.60
2017-11-13T01:38:24.155Z,5.60
2017-11-13T01:40:51.577Z,5.60
2017-11-13T01:43:19.782Z,5.70
2017-11-13T01:45:47.270Z,5.60
2017-11-13T01:48:14.730Z,5.70
2017-11-13T01:50:42.281Z,5.70
2017-11-13T01:53:09.707Z,5.70
2017-11-13T01:55:37.908Z,5.50
2017-11-13T01:58:05.346Z,5.50
2017-11-13T02:00:32.842Z,5.50
2017-11-13T02:03:00.529Z,5.50
2017-11-13T02:05:27.965Z,5.40
2017-11-13T02:07:55.391Z,5.40
2017-11-13T02:10:22.834Z,5.40
2017-11-13T02:12:50.273Z,5.30
2017-11-13T02:15:18.815Z,5.30
2017-11-13T02:17:46.243Z,5.30
2017-11-13T02:20:13.670Z,5.30
2017-11-13T02:22:42.206Z,5.40
2017-11-13T02:25:09.632Z,5.40
2017-11-13T02:27:37.062Z,5.40
2017-11-13T02:30:04.500Z,5.50
2017-11-13T02:32:32.038Z,5.50
2017-11-13T02:34:59.801Z,5.60
2017-11-13T02:37:27.237Z,5.60
2017-11-13T02:39:54.725Z,5.70
2017-11-13T02:42:22.173Z,5.70
2017-11-13T02:44:49.610Z,5.70
2017-11-13T02:47:17.396Z,5.80
2017-11-13T02:49:44.839Z,5.80
2017-11-13T02:52:12.270Z,5.90
2017-11-13T02:54:40.493Z,5.90
2017-11-13T02:57:07.923Z,5.80
2017-11-13T02:59:35.720Z,5.90
2017-11-13T03:02:03.153Z,6.00
2017-11-13T03:04:30.577Z,6.00
2017-11-13T03:06:58.801Z,6.00
2017-11-13T03:09:26.231Z,6.00
2017-11-13T03:11:54.017Z,6.00
2017-11-13T03:14:21.445Z,6.10
2017-11-13T03:16:48.881Z,6.10
2017-11-13T03:19:17.092Z,6.10
2017-11-13T03:21:44.523Z,6.10
2017-11-13T03:24:12.733Z,6.20
2017-11-13T03:26:40.162Z,6.10
2017-11-13T03:29:07.970Z,6.20
2017-11-13T03:31:35.408Z,6.20
2017-11-13T03:34:02.886Z,6.30
2017-11-13T03:36:30.334Z,6.20
2017-11-13T03:38:57.762Z,6.30
2017-11-13T03:41:25.207Z,6.30
2017-11-13T03:43:53.409Z,6.20
2017-11-13T03:46:21.189Z,6.20
2017-11-13T03:48:48.650Z,6.30
2017-11-13T03:51:16.087Z,6.20
2017-11-13T03:53:43.565Z,6.20
2017-11-13T03:56:10.991Z,6.10
2017-11-13T03:58:38.446Z,6.20
2017-11-13T04:01:05.877Z,6.10
2017-11-13T04:03:34.335Z,6.20
2017-11-13T04:06:01.775Z,6.10
2017-11-13T04:08:29.202Z,6.20
2017-11-13T04:10:56.655Z,6.20
2017-11-13T04:13:24.116Z,6.20
2017-11-13T04:15:51.549Z,6.20
2017-11-13T04:18:19.771Z,6.30
2017-11-13T04:20:47.538Z,6.30
2017-11-13T04:23:14.975Z,6.40
2017-11-13T04:25:42.401Z,6.40
2017-11-13T04:28:10.619Z,6.40
2017-11-13T04:30:38.167Z,6.40
2017-11-13T04:33:05.600Z,6.40
2017-11-13T04:35:33.826Z,6.40
2017-11-13T04:38:01.590Z,6.40
2017-11-13T04:40:29.038Z,6.40
2017-11-13T04:42:56.590Z,6.40
2017-11-13T04:45:24.066Z,6.30
2017-11-13T04:47:51.492Z,6.30
2017-11-13T04:50:18.933Z,6.30
2017-11-13T04:52:46.370Z,6.30
2017-11-13T04:55:14.910Z,6.20
2017-11-13T04:57:42.470Z,6.20
2017-11-13T05:00:09.888Z,6.20
2017-11-13T05:02:38.096Z,6.10
2017-11-13T05:05:05.566Z,6.00
2017-11-13T05:07:33.016Z,6.00
2017-11-13T05:10:00.450Z,5.90
2017-11-13T05:12:28.145Z,5.90
2017-11-13T05:14:55.595Z,5.80
2017-11-13T05:17:23.024Z,5.90
2017-11-13T05:19:50.482Z,6.00
2017-11-13T05:22:17.906Z,6.00
2017-11-13T05:24:46.118Z,6.10
2017-11-13T05:27:13.560Z,6.00
2017-11-13T05:29:42.037Z,6.20
2017-11-13T05:32:10.230Z,6.20
2017-11-13T05:34:37.653Z,6.10
2017-11-13T05:37:05.082Z,6.20
2017-11-13T05:39:32.513Z,6.30
2017-11-13T05:41:59.987Z,6.30
2017-11-13T05:44:27.414Z,6.30
2017-11-13T05:46:55.213Z,6.30
2017-11-13T05:49:22.645Z,6.30
2017-11-13T05:51:50.126Z,6.30
2017-11-13T05:54:17.582Z,6.30
2017-11-13T05:56:45.022Z,6.40
2017-11-13T05:59:12.463Z,6.40
2017-11-13T06:01:39.898Z,6.40
2017-11-13T06:04:08.123Z,6.50
2017-11-13T06:06:35.582Z,6.50
2017-11-13T06:09:03.010Z,6.50
2017-11-13T06:11:30.461Z,6.50
2017-11-13T06:13:57.924Z,6.50
2017-11-13T06:16:25.354Z,6.50
2017-11-13T06:18:53.555Z,6.50
2017-11-13T06:21:21.241Z,6.40
2017-11-13T06:23:48.676Z,6.50
2017-11-13T06:26:16.101Z,6.40
2017-11-13T06:28:43.549Z,6.40
2017-11-13T06:31:10.979Z,6.40
2017-11-13T06:33:38.424Z,6.30
2017-11-13T06:36:05.904Z,6.30
2017-11-13T06:38:33.335Z,6.30
2017-11-13T06:41:00.770Z,6.30
2017-11-13T06:43:28.474Z,6.40
2017-11-13T06:45:55.929Z,6.40
2017-11-13T06:48:23.359Z,6.40
2017-11-13T06:50:50.802Z,6.40
2017-11-13T06:53:18.231Z,6.50
2017-11-13T06:55:45.682Z,6.50
2017-11-13T06:58:13.118Z,6.50
2017-11-13T07:00:40.870Z,6.50
2017-11-13T07:03:08.331Z,6.60
2017-11-13T07:05:35.759Z,6.50
2017-11-13T07:08:03.242Z,6.50
2017-11-13T07:10:30.674Z,6.50
2017-11-13T07:12:58.136Z,6.50
2017-11-13T07:15:25.610Z,6.50
2017-11-13T07:17:53.385Z,6.40
2017-11-13T07:20:20.818Z,6.40
2017-11-13T07:22:48.256Z,6.40
2017-11-13T07:25:16.450Z,6.50
2017-11-13T07:27:43.877Z,6.50
2017-11-13T07:30:12.099Z,6.70
2017-11-13T07:32:39.531Z,6.60
2017-11-13T07:35:07.332Z,6.70
2017-11-13T07:37:34.878Z,6.70
2017-11-13T07:40:02.310Z,6.70
2017-11-13T07:42:29.753Z,6.80
2017-11-13T07:44:57.962Z,6.80
2017-11-13T07:47:25.402Z,6.80
2017-11-13T07:49:52.830Z,6.90
2017-11-13T07:52:21.378Z,7.00
2017-11-13T07:54:48.823Z,6.90
2017-11-13T07:57:16.299Z,7.00
2017-11-13T07:59:43.848Z,7.00
2017-11-13T08:02:11.270Z,7.10
2017-11-13T08:04:38.754Z,7.10
2017-11-13T08:07:06.220Z,7.20
2017-11-13T08:09:33.925Z,7.30
2017-11-13T08:12:02.133Z,8.10
2017-11-13T08:14:29.552Z,8.00
2017-11-13T08:16:57.078Z,8.40
2017-11-13T08:19:24.519Z,8.40
2017-11-13T08:21:51.976Z,8.30
2017-11-13T08:24:19.412Z,8.20
2017-11-13T08:26:47.218Z,8.10
2017-11-13T08:29:14.702Z,8.00
2017-11-13T08:31:42.142Z,8.10
2017-11-13T08:34:09.579Z,8.60
2017-11-13T08:36:37.041Z,9.90
2017-11-13T08:39:04.498Z,11.30
2017-11-13T08:41:31.931Z,12.10
2017-11-13T08:43:59.625Z,12.10
2017-11-13T08:46:27.225Z,11.70
2017-11-13T08:48:55.444Z,11.10
2017-11-13T08:51:22.879Z,11.00
2017-11-13T08:53:50.310Z,10.70
2017-11-13T08:56:18.550Z,10.80
2017-11-13T08:58:45.987Z,10.70
2017-11-13T09:01:13.770Z,11.60
2017-11-13T09:03:41.197Z,12.70
2017-11-13T09:06:08.635Z,12.90
2017-11-13T09:08:36.847Z,12.00
2017-11-13T09:11:04.279Z,11.90
2017-11-13T09:13:32.675Z,11.40
2017-11-13T09:16:00.166Z,10.80
2017-11-13T09:18:27.855Z,10.40
2017-11-13T09:20:56.107Z,9.70
2017-11-13T09:23:23.534Z,9.60
2017-11-13T09:25:50.966Z,9.50
2017-11-13T09:28:18.399Z,9.30
2017-11-13T09:30:45.846Z,9.30
2017-11-13T09:33:13.370Z,9.20
2017-11-13T09:35:41.071Z,9.10
2017-11-13T09:38:10.046Z,9.10
2017-11-13T09:40:37.595Z,9.00
2017-11-13T09:43:05.042Z,9.10
2017-11-13T09:45:32.503Z,9.20
2017-11-13T09:48:00.055Z,9.20
2017-11-13T09:50:27.530Z,9.40
2017-11-13T09:52:55.217Z,9.80
2017-11-13T09:55:22.655Z,10.10
2017-11-13T09:57:50.085Z,10.20
2017-11-13T10:00:17.546Z,10.30
2017-11-13T10:02:44.963Z,10.20
2017-11-13T10:05:13.498Z,9.80
2017-11-13T10:07:40.940Z,9.80
2017-11-13T10:10:08.378Z,9.70
2017-11-13T10:12:35.815Z,9.60
2017-11-13T10:15:04.010Z,9.40
2017-11-13T10:17:31.442Z,9.40
2017-11-13T10:19:59.666Z,9.30
2017-11-13T10:22:27.430Z,9.30
2017-11-13T10:24:54.855Z,9.30
2017-11-13T10:27:23.048Z,9.20
2017-11-13T10:29:50.487Z,9.20
2017-11-13T10:32:18.670Z,9.20
2017-11-13T10:34:46.141Z,9.10
2017-11-13T10:37:13.618Z,9.10
2017-11-13T10:39:41.305Z,9.10
2017-11-13T10:42:08.742Z,9.10
2017-11-13T10:44:36.167Z,9.10
2017-11-13T10:47:03.597Z,9.20
2017-11-13T10:49:31.807Z,9.20
2017-11-13T10:51:59.503Z,9.10
2017-11-13T10:54:26.934Z,9.20
2017-11-13T10:56:54.423Z,9.20
2017-11-13T10:59:21.865Z,9.20
2017-11-13T11:01:49.291Z,9.10
2017-11-13T11:04:16.978Z,9.20
2017-11-13T11:06:44.401Z,9.20
2017-11-13T11:09:11.830Z,9.30
2017-11-13T11:11:39.282Z,9.40
2017-11-13T11:14:06.738Z,9.50
2017-11-13T11:16:40.014Z,9.50
2017-11-13T11:19:10.031Z,9.50
2017-11-13T11:21:52.346Z,9.50
2017-11-13T11:24:19.778Z,9.50
2017-11-13T11:26:57.925Z,9.50
2017-11-13T11:29:27.826Z,9.50
2017-11-13T11:32:00.952Z,9.60
2017-11-13T11:34:30.729Z,9.70
2017-11-13T11:37:14.745Z,9.60
2017-11-13T11:39:42.170Z,9.60
2017-11-13T11:42:09.883Z,9.60
2017-11-13T11:44:38.741Z,9.60
2017-11-13T11:47:06.159Z,9.70
2017-11-13T11:49:35.286Z,9.90
2017-11-13T11:52:02.708Z,9.80
2017-11-13T11:54:30.446Z,9.90
2017-11-13T11:57:03.494Z,10.00
2017-11-13T11:59:31.191Z,9.90
2017-11-13T12:01:58.632Z,9.90
2017-11-13T12:04:26.046Z,9.90
2017-11-13T12:06:54.283Z,9.90
2017-11-13T12:09:21.707Z,9.90
2017-11-13T12:11:49.173Z,9.80
2017-11-13T12:14:16.597Z,9.80
2017-11-13T12:16:45.131Z,9.80
2017-11-13T12:19:12.681Z,9.70
2017-11-13T12:21:40.110Z,9.80
2017-11-13T12:24:07.547Z,9.80
2017-11-13T12:26:35.743Z,9.90
2017-11-13T12:29:03.187Z,9.80
2017-11-13T12:31:31.374Z,9.90
2017-11-13T12:33:59.091Z,9.90
2017-11-13T12:36:26.534Z,10.00
2017-11-13T12:38:53.990Z,10.10
2017-11-13T12:41:21.547Z,10.30
2017-11-13T12:43:48.980Z,10.50
2017-11-13T12:46:16.492Z,10.70
2017-11-13T12:48:43.920Z,10.80
2017-11-13T12:51:11.684Z,10.80
2017-11-13T12:53:39.136Z,10.80
2017-11-13T12:56:06.579Z,10.70
2017-11-13T12:58:34.010Z,10.80
2017-11-13T13:01:02.211Z,10.60
2017-11-13T13:03:29.662Z,10.50
2017-11-13T13:05:57.093Z,10.50
2017-11-13T13:08:25.634Z,10.40
2017-11-13T13:10:53.071Z,10.40
2017-11-13T13:13:20.507Z,10.40
2017-11-13T13:15:47.958Z,10.40
2017-11-13T13:18:15.390Z,10.40
2017-11-13T13:20:42.829Z,10.50
2017-11-13T13:23:10.262Z,10.60
2017-11-13T13:25:38.043Z,10.50
2017-11-13T13:28:05.469Z,10.50
2017-11-13T13:30:32.938Z,10.50
2017-11-13T13:33:00.413Z,10.50
2017-11-13T13:35:27.841Z,10.40
2017-11-13T13:37:56.169Z,10.30
2017-11-13T13:40:24.366Z,10.20
2017-11-13T13:42:52.830Z,10.10
2017-11-13T13:45:20.254Z,10.10
2017-11-13T13:47:47.687Z,10.10
2017-11-13T13:50:15.171Z,10.10
2017-11-13T13:52:42.631Z,10.00
2017-11-13T13:55:10.399Z,10.00
2017-11-13T13:57:37.833Z,9.90
2017-11-13T14:00:05.317Z,9.80
2017-11-13T14:02:32.753Z,9.80
2017-11-13T14:05:00.186Z,9.70
2017-11-13T14:07:27.684Z,9.70
2017-11-13T14:09:55.102Z,9.70
2017-11-13T14:12:22.791Z,9.60
2017-11-13T14:14:50.262Z,9.60
2017-11-13T14:17:17.722Z,9.60
2017-11-13T14:19:45.157Z,9.60
2017-11-13T14:22:12.590Z,9.50
2017-11-13T14:24:40.807Z,9.50
2017-11-13T14:27:08.237Z,9.40
2017-11-13T14:29:35.921Z,9.50
2017-11-13T14:32:03.353Z,9.40
2017-11-13T14:34:30.778Z,9.30
2017-11-13T14:36:58.299Z,9.20
2017-11-13T14:39:25.730Z,9.20
2017-11-13T14:41:53.185Z,9.20
2017-11-13T14:44:20.668Z,9.10
2017-11-13T14:46:48.358Z,9.10
2017-11-13T14:49:16.550Z,9.00
2017-11-13T14:51:44.747Z,9.00
2017-11-13T14:54:12.234Z,8.90
2017-11-13T14:56:39.666Z,8.90
2017-11-13T14:59:07.857Z,8.70
2017-11-13T15:01:35.286Z,8.70
2017-11-13T15:04:03.099Z,8.60
2017-11-13T15:06:30.554Z,8.60
2017-11-13T15:08:57.988Z,8.50
2017-11-13T15:11:25.435Z,8.40
2017-11-13T15:13:52.874Z,8.30
2017-11-13T15:16:21.085Z,8.20
2017-11-13T15:18:48.550Z,8.20
2017-11-13T15:21:16.313Z,8.10
2017-11-13T15:23:43.750Z,8.10
2017-11-13T15:26:11.185Z,8.00
2017-11-13T15:28:39.409Z,7.80
2017-11-13T15:31:06.850Z,7.80
2017-11-13T15:33:34.633Z,7.80
2017-11-13T15:36:02.093Z,7.70
2017-11-13T15:38:29.532Z,7.70
2017-11-13T15:40:56.989Z,7.60
2017-11-13T15:43:24.466Z,7.60
2017-11-13T15:45:51.933Z,7.60
2017-11-13T15:48:19.378Z,7.50
2017-11-13T15:50:47.078Z,7.40
2017-11-13T15:53:15.305Z,7.40
2017-11-13T15:55:42.734Z,7.30
2017-11-13T15:58:10.178Z,7.30
2017-11-13T16:00:38.382Z,7.20
2017-11-13T16:03:05.826Z,7.10
2017-11-13T16:05:33.310Z,7.10
2017-11-13T16:08:01.014Z,7.10
2017-11-13T16:10:28.445Z,7.00
2017-11-13T16:12:55.889Z,7.00
2017-11-13T16:15:23.334Z,6.90
2017-11-13T16:17:50.809Z,6.80
2017-11-13T16:20:18.503Z,6.70
2017-11-13T16:22:45.937Z,6.60
2017-11-13T16:25:13.390Z,6.60
2017-11-13T16:27:40.839Z,6.60
2017-11-13T16:30:08.307Z,6.60
2017-11-13T16:32:36.003Z,6.60
2017-11-13T16:35:03.445Z,6.60
2017-11-13T16:37:30.986Z,6.50
2017-11-13T16:39:58.453Z,6.40
2017-11-13T16:42:25.881Z,6.30
2017-11-13T16:44:53.330Z,6.30
2017-11-13T16:47:20.768Z,6.20
2017-11-13T16:49:48.562Z,6.20
2017-11-13T16:52:16.038Z,6.20
2017-11-13T16:54:43.466Z,6.20
2017-11-13T16:57:10.951Z,6.20
2017-11-13T16:59:38.377Z,6.20
2017-11-13T17:02:06.123Z,6.10
2017-11-13T17:04:34.335Z,6.00
2017-11-13T17:07:01.758Z,6.00
2017-11-13T17:09:29.263Z,6.00
2017-11-13T17:11:56.705Z,6.00
2017-11-13T17:14:24.482Z,6.00
2017-11-13T17:16:51.919Z,6.00
2017-11-13T17:19:19.400Z,6.00
2017-11-13T17:21:46.846Z,6.00
2017-11-13T17:24:14.311Z,5.90
2017-11-13T17:26:42.065Z,5.90
2017-11-13T17:29:09.485Z,5.80
2017-11-13T17:31:36.926Z,5.80
2017-11-13T17:34:05.142Z,5.60
2017-11-13T17:36:32.618Z,5.60
2017-11-13T17:39:00.312Z,5.60
2017-11-13T17:41:27.742Z,5.60
2017-11-13T17:43:55.639Z,5.50
2017-11-13T17:46:23.078Z,5.50
2017-11-13T17:48:50.517Z,5.50
2017-11-13T17:51:18.223Z,5.40
2017-11-13T17:53:45.656Z,5.40
2017-11-13T17:56:13.082Z,5.40
2017-11-13T17:58:40.518Z,5.40
2017-11-13T18:01:07.961Z,5.40
2017-11-13T18:03:36.490Z,5.40
2017-11-13T18:06:03.954Z,5.30
2017-11-13T18:08:31.412Z,5.40
2017-11-13T18:10:58.977Z,5.40
2017-11-13T18:13:27.294Z,5.40
2017-11-13T18:15:55.749Z,5.30
2017-11-13T18:18:23.182Z,5.30
2017-11-13T18:20:50.646Z,5.30
2017-11-13T18:23:18.206Z,5.20
2017-11-13T18:25:45.636Z,5.20
2017-11-13T18:28:13.333Z,5.10
2017-11-13T18:30:40.787Z,5.10
2017-11-13T18:33:08.214Z,5.10
2017-11-13T18:35:35.670Z,5.10
2017-11-13T18:38:03.103Z,5.10
2017-11-13T18:40:31.637Z,5.10
2017-11-13T18:42:59.089Z,5.00
2017-11-13T18:45:26.519Z,5.10
2017-11-13T18:47:53.970Z,5.10
2017-11-13T18:50:21.393Z,5.00
2017-11-13T18:52:48.847Z,5.00
2017-11-13T18:55:16.378Z,5.00
2017-11-13T18:57:44.147Z,4.90
2017-11-13T19:00:11.601Z,4.90
2017-11-13T19:02:39.036Z,4.90
2017-11-13T19:05:06.477Z,4.90
2017-11-13T19:07:33.904Z,4.90
2017-11-13T19:10:02.119Z,5.00
2017-11-13T19:12:29.607Z,4.90
2017-11-13T19:14:57.366Z,5.00
2017-11-13T19:17:24.798Z,5.10
2017-11-13T19:19:52.231Z,5.10
2017-11-13T19:22:20.447Z,5.00
2017-11-13T19:24:47.924Z,4.90
2017-11-13T19:27:15.366Z,5.00
2017-11-13T19:29:42.797Z,5.00
2017-11-13T19:32:10.596Z,4.90
2017-11-13T19:34:38.029Z,4.90
2017-11-13T19:37:05.485Z,4.90
2017-11-13T19:39:32.974Z,4.80
2017-11-13T19:42:01.323Z,4.80
2017-11-13T19:44:28.812Z,4.70
2017-11-13T19:46:56.250Z,4.70
2017-11-13T19:49:24.033Z,4.70
2017-11-13T19:51:51.457Z,4.70
2017-11-13T19:54:18.942Z,4.70
2017-11-13T19:56:46.393Z,4.60
2017-11-13T19:59:13.826Z,4.60
2017-11-13T20:01:41.262Z,4.50
2017-11-13T20:04:09.492Z,4.50
2017-11-13T20:06:37.346Z,4.40
2017-11-13T20:09:04.902Z,4.50
2017-11-13T20:11:32.378Z,4.50
2017-11-13T20:13:59.834Z,4.40
2017-11-13T20:16:27.261Z,4.40
2017-11-13T20:18:54.705Z,4.50
2017-11-13T20:21:22.189Z,4.40
2017-11-13T20:23:49.970Z,4.40
2017-11-13T20:26:17.410Z,4.40
2017-11-13T20:28:44.886Z,4.40
2017-11-13T20:31:12.410Z,4.40
2017-11-13T20:33:39.842Z,4.40
2017-11-13T20:36:08.054Z,4.30
2017-11-13T20:38:35.478Z,4.30
2017-11-13T20:41:04.099Z,4.30
2017-11-13T20:43:31.514Z,4.20
2017-11-13T20:45:59.754Z,4.30
2017-11-13T20:48:27.318Z,4.20
2017-11-13T20:50:54.750Z,4.30
2017-11-13T20:53:22.189Z,4.30
2017-11-13T20:55:49.633Z,4.20
2017-11-13T20:58:18.164Z,4.20
2017-11-13T21:00:45.621Z,4.20
2017-11-13T21:03:13.168Z,4.20
2017-11-13T21:05:40.603Z,4.20
2017-11-13T21:08:08.036Z,4.20
2017-11-13T21:10:35.754Z,4.20
2017-11-13T21:13:03.199Z,4.20
2017-11-13T21:15:30.627Z,4.20
2017-11-13T21:17:58.073Z,4.10
2017-11-13T21:20:26.290Z,4.10
2017-11-13T21:22:53.729Z,4.10
2017-11-13T21:25:21.210Z,4.10
2017-11-13T21:27:48.994Z,4.20
2017-11-13T21:30:16.418Z,4.20
2017-11-13T21:32:43.893Z,4.20
2017-11-13T21:35:11.333Z,4.10
2017-11-13T21:37:38.810Z,4.10
2017-11-13T21:40:06.258Z,4.10
2017-11-13T21:42:33.721Z,4.10
2017-11-13T21:45:01.490Z,4.00
2017-11-13T21:47:28.962Z,4.00
2017-11-13T21:49:56.396Z,4.00
2017-11-13T21:52:23.873Z,4.00
2017-11-13T21:54:51.330Z,4.00
2017-11-13T21:57:18.779Z,4.00
2017-11-13T21:59:46.217Z,3.90
2017-11-13T22:02:13.913Z,4.00
2017-11-13T22:04:41.350Z,4.00
2017-11-13T22:07:08.786Z,4.00
2017-11-13T22:09:36.237Z,4.00
2017-11-13T22:12:03.674Z,4.00
2017-11-13T22:14:32.206Z,4.00
2017-11-13T22:16:59.635Z,3.90
2017-11-13T22:19:27.061Z,4.00
2017-11-13T22:21:54.512Z,3.90
2017-11-13T22:24:21.943Z,4.00
2017-11-13T22:26:49.586Z,3.90
2017-11-13T22:29:17.007Z,3.90
2017-11-13T22:31:45.537Z,3.90
2017-11-13T22:34:12.962Z,3.80
2017-11-13T22:36:40.398Z,3.90
2017-11-13T22:39:08.611Z,3.80
2017-11-13T22:41:36.042Z,3.80
2017-11-13T22:44:04.266Z,3.80
2017-11-13T22:46:31.695Z,3.80
2017-11-13T22:48:59.491Z,3.80
2017-11-13T22:51:26.928Z,3.80
2017-11-13T22:53:54.410Z,3.80
2017-11-13T22:56:21.862Z,3.80
2017-11-13T22:58:49.326Z,3.70
2017-11-13T23:01:16.874Z,3.70
2017-11-13T23:03:44.298Z,3.70
2017-11-13T23:06:12.102Z,3.70
2017-11-13T23:08:39.519Z,3.60
2017-11-13T23:11:07.017Z,3.60
2017-11-13T23:13:34.576Z,3.60
2017-11-13T23:16:02.026Z,3.50
2017-11-13T23:18:29.468Z,3.50
2017-11-13T23:20:56.903Z,3.50
2017-11-13T23:23:24.704Z,3.50
2017-11-13T23:25:52.131Z,3.50
2017-11-13T23:28:19.557Z,3.50
2017-11-13T23:30:47.074Z,3.50
2017-11-13T23:33:14.650Z,3.40
2017-11-13T23:35:42.198Z,3.40
2017-11-13T23:38:09.660Z,3.40
2017-11-13T23:40:37.422Z,3.40
2017-11-13T23:43:04.859Z,3.40
2017-11-13T23:45:32.316Z,3.40
2017-11-13T23:47:59.765Z,3.50
2017-11-13T23:50:27.185Z,3.50
2017-11-13T23:52:55.393Z,3.60
2017-11-13T23:55:22.829Z,3.60
2017-11-13T23:57:51.366Z,3.70
